Time;durP1;ratioP1;P1;durP2;ratioP2;P2;SDS_P1;SDS_P2;PMS_P1;PMS_P2;Temp;Humidity;BMP_temperature;BMP_pressure;BME280_temperature;BME280_humidity;BME280_pressure;Samples;Min_cycle;Max_cycle;Signal;HPM_P1;HPM_P2
2023/07/23 00:01:14;;;;;;;11.67;10.10;;;15.90;99.90;;;;;;5053751;28;20450;-57
2023/07/23 00:03:40;;;;;;;10.47;8.63;;;15.90;99.90;;;;;;5053888;28;20930;-56
2023/07/23 00:06:08;;;;;;;12.70;10.27;;;15.90;99.90;;;;;;5054228;28;20472;-57
2023/07/23 00:08:35;;;;;;;13.10;10.60;;;15.90;99.90;;;;;;5053686;28;20943;-57
2023/07/23 00:11:02;;;;;;;13.33;10.20;;;15.90;99.90;;;;;;5053405;28;20553;-57
2023/07/23 00:13:29;;;;;;;14.27;10.07;;;15.80;99.90;;;;;;5054394;28;20441;-57
2023/07/23 00:15:55;;;;;;;12.43;10.73;;;15.80;99.90;;;;;;5053277;28;20472;-56
2023/07/23 00:18:22;;;;;;;12.50;10.20;;;15.80;99.90;;;;;;5053803;28;20429;-57
2023/07/23 00:20:49;;;;;;;13.67;10.47;;;15.80;99.90;;;;;;5053288;28;20449;-57
2023/07/23 00:23:17;;;;;;;11.63;9.63;;;15.80;99.90;;;;;;5053311;28;20444;-56
2023/07/23 00:25:44;;;;;;;14.37;11.50;;;15.80;99.90;;;;;;5053976;28;20445;-57
2023/07/23 00:28:11;;;;;;;12.30;10.33;;;15.80;99.90;;;;;;5056838;28;20440;-57
2023/07/23 00:30:37;;;;;;;11.47;9.63;;;15.80;99.90;;;;;;5057382;28;20455;-56
2023/07/23 00:33:04;;;;;;;12.50;10.03;;;15.80;99.90;;;;;;5057405;28;20441;-57
2023/07/23 00:35:31;;;;;;;12.50;10.90;;;15.80;99.90;;;;;;5056443;28;20445;-58
2023/07/23 00:37:58;;;;;;;14.17;10.20;;;15.80;99.90;;;;;;5056507;28;20581;-57
2023/07/23 00:40:26;;;;;;;13.33;10.37;;;15.80;99.90;;;;;;5057083;28;20451;-57
2023/07/23 00:42:53;;;;;;;12.37;10.20;;;15.80;99.90;;;;;;5056580;28;20470;-58
2023/07/23 00:45:20;;;;;;;11.07;9.90;;;15.70;99.90;;;;;;5056505;28;20452;-58
2023/07/23 00:47:47;;;;;;;10.47;9.27;;;15.70;99.90;;;;;;5057029;28;20507;-57
2023/07/23 00:50:15;;;;;;;11.57;9.80;;;15.70;99.90;;;;;;5056415;28;20455;-57
2023/07/23 00:52:42;;;;;;;9.90;8.90;;;15.70;99.90;;;;;;5056434;28;20448;-56
2023/07/23 00:55:10;;;;;;;11.73;10.57;;;15.60;99.90;;;;;;5056255;28;20450;-56
2023/07/23 00:57:38;;;;;;;13.70;9.30;;;15.60;99.90;;;;;;5056270;28;20488;-57
2023/07/23 01:00:07;;;;;;;10.70;8.83;;;15.60;99.90;;;;;;5056680;28;20449;-57
2023/07/23 01:02:34;;;;;;;10.17;8.70;;;15.60;99.90;;;;;;5057259;28;20449;-58
2023/07/23 01:05:02;;;;;;;12.30;9.10;;;15.60;99.90;;;;;;5056475;28;20456;-57
2023/07/23 01:07:31;;;;;;;10.43;7.60;;;15.60;99.90;;;;;;5056944;28;20496;-57
2023/07/23 01:09:59;;;;;;;10.03;8.50;;;15.60;99.90;;;;;;5056865;28;20445;-57
2023/07/23 01:12:26;;;;;;;9.67;8.67;;;15.60;99.90;;;;;;5056225;28;20822;-57
2023/07/23 01:14:54;;;;;;;9.10;8.10;;;15.60;99.90;;;;;;5057149;28;20460;-58
2023/07/23 01:17:22;;;;;;;9.20;7.80;;;15.60;99.90;;;;;;5055926;28;20574;-58
2023/07/23 01:19:59;;;;;;;11.03;8.43;;;15.60;99.90;;;;;;5056140;28;20450;-58
2023/07/23 01:22:27;;;;;;;10.03;8.90;;;15.60;99.90;;;;;;5056266;28;20539;-57
2023/07/23 01:24:54;;;;;;;10.10;7.67;;;15.60;99.90;;;;;;5056183;28;20442;-58
2023/07/23 01:27:21;;;;;;;9.43;7.30;;;15.60;99.90;;;;;;5055939;28;21005;-57
2023/07/23 01:29:48;;;;;;;8.17;7.37;;;15.60;99.90;;;;;;5056468;28;20541;-57
2023/07/23 01:32:14;;;;;;;8.57;7.13;;;15.60;99.90;;;;;;5056099;28;20451;-56
2023/07/23 01:34:41;;;;;;;10.03;8.10;;;15.60;99.90;;;;;;5055907;28;20918;-58
2023/07/23 01:37:11;;;;;;;9.77;7.93;;;15.60;99.90;;;;;;5055578;28;20488;-58
2023/07/23 01:39:40;;;;;;;11.00;7.60;;;15.50;99.90;;;;;;5054664;28;20447;-56
2023/07/23 01:42:10;;;;;;;11.03;7.40;;;15.60;99.90;;;;;;5056036;28;20441;-57
2023/07/23 01:44:37;;;;;;;7.80;7.00;;;15.60;99.90;;;;;;5056207;28;20540;-57
2023/07/23 01:47:04;;;;;;;8.80;7.90;;;15.60;99.90;;;;;;5055418;28;20463;-57
2023/07/23 01:49:31;;;;;;;9.93;7.20;;;15.60;99.90;;;;;;5055277;28;20452;-57
2023/07/23 01:51:57;;;;;;;8.77;7.87;;;15.60;99.90;;;;;;5055418;28;20440;-57
2023/07/23 01:54:24;;;;;;;8.50;7.60;;;15.60;99.90;;;;;;5054925;28;20946;-58
2023/07/23 01:56:53;;;;;;;8.10;6.40;;;15.60;99.90;;;;;;5055240;28;20484;-57
2023/07/23 01:59:19;;;;;;;9.43;7.67;;;15.50;99.90;;;;;;5054837;28;20858;-58
2023/07/23 02:01:46;;;;;;;9.00;6.87;;;15.50;99.90;;;;;;5055511;28;20903;-57
2023/07/23 02:04:13;;;;;;;9.70;7.70;;;15.50;99.90;;;;;;5055185;28;20460;-56
2023/07/23 02:06:40;;;;;;;8.17;7.10;;;15.50;99.90;;;;;;5055100;28;20465;-56
2023/07/23 02:09:06;;;;;;;10.20;7.67;;;15.50;99.90;;;;;;5055205;28;20452;-57
2023/07/23 02:11:33;;;;;;;7.93;6.93;;;15.50;99.90;;;;;;5055500;28;20444;-57
2023/07/23 02:14:02;;;;;;;9.53;7.40;;;15.50;99.90;;;;;;5057745;28;20451;-57
2023/07/23 02:16:28;;;;;;;9.60;8.13;;;15.50;99.90;;;;;;5055515;28;20465;-56
2023/07/23 02:18:56;;;;;;;11.47;8.43;;;15.50;99.90;;;;;;5055212;28;20486;-57
2023/07/23 02:21:23;;;;;;;9.23;7.63;;;15.50;99.90;;;;;;5054775;28;20447;-56
2023/07/23 02:23:49;;;;;;;9.93;7.70;;;15.50;99.90;;;;;;5055631;28;20445;-57
2023/07/23 02:26:16;;;;;;;7.80;7.00;;;15.50;99.90;;;;;;5055796;28;20468;-57
2023/07/23 02:28:43;;;;;;;11.33;8.10;;;15.50;99.90;;;;;;5056700;28;20442;-57
2023/07/23 02:31:11;;;;;;;12.47;8.60;;;15.50;99.90;;;;;;5055681;28;20452;-56
2023/07/23 02:33:38;;;;;;;10.00;7.90;;;15.50;99.90;;;;;;5055792;28;20449;-56
2023/07/23 02:36:05;;;;;;;10.00;8.43;;;15.50;99.90;;;;;;5055583;28;20995;-56
2023/07/23 02:38:32;;;;;;;9.03;7.43;;;15.50;99.90;;;;;;5054631;28;20470;-57
2023/07/23 02:41:00;;;;;;;9.33;7.77;;;15.50;99.90;;;;;;5054478;28;20463;-57
2023/07/23 02:43:27;;;;;;;8.70;7.80;;;15.50;99.90;;;;;;5054434;28;20843;-58
2023/07/23 02:45:54;;;;;;;10.53;7.80;;;15.50;99.90;;;;;;5054309;28;20467;-57
2023/07/23 02:48:22;;;;;;;12.33;8.97;;;15.40;99.90;;;;;;5054280;28;20451;-57
2023/07/23 02:50:49;;;;;;;8.00;7.13;;;15.40;99.90;;;;;;5053334;28;20444;-57
2023/07/23 02:53:15;;;;;;;8.53;7.53;;;15.40;99.90;;;;;;5053934;28;20455;-57
2023/07/23 02:55:42;;;;;;;8.17;6.67;;;15.40;99.90;;;;;;5054263;28;20455;-57
2023/07/23 02:58:09;;;;;;;9.13;7.63;;;15.40;99.90;;;;;;5053981;28;20518;-58
2023/07/23 03:00:37;;;;;;;8.60;7.50;;;15.40;99.90;;;;;;5054991;28;20445;-56
2023/07/23 03:03:06;;;;;;;8.70;6.53;;;15.50;99.90;;;;;;5054202;28;20494;-56
2023/07/23 03:05:35;;;;;;;10.53;7.07;;;15.50;99.90;;;;;;5053979;28;20452;-55
2023/07/23 03:08:02;;;;;;;8.20;7.10;;;15.50;99.90;;;;;;5055071;28;20441;-56
2023/07/23 03:10:29;;;;;;;8.37;7.20;;;15.50;99.90;;;;;;5053922;28;20459;-57
2023/07/23 03:12:56;;;;;;;8.10;6.90;;;15.40;99.90;;;;;;5053933;28;20452;-57
2023/07/23 03:15:23;;;;;;;11.70;8.77;;;15.50;99.90;;;;;;5053585;28;20445;-57
2023/07/23 03:17:51;;;;;;;9.37;8.00;;;15.40;99.90;;;;;;5053431;28;20480;-56
2023/07/23 03:20:18;;;;;;;10.63;9.23;;;15.40;99.90;;;;;;5053827;28;20518;-57
2023/07/23 03:22:46;;;;;;;10.67;8.77;;;15.40;99.90;;;;;;5053600;28;20444;-56
2023/07/23 03:25:13;;;;;;;9.93;8.87;;;15.40;99.90;;;;;;5053959;28;20441;-57
2023/07/23 03:27:39;;;;;;;10.13;8.60;;;15.30;99.90;;;;;;5053386;28;20463;-57
2023/07/23 03:30:07;;;;;;;9.67;8.63;;;15.30;99.90;;;;;;5053280;28;20463;-57
2023/07/23 03:32:34;;;;;;;13.03;10.30;;;15.30;99.90;;;;;;5053319;28;20523;-57
2023/07/23 03:35:01;;;;;;;9.90;8.90;;;15.30;99.90;;;;;;5053278;28;20448;-56
2023/07/23 03:37:27;;;;;;;10.30;9.30;;;15.30;99.90;;;;;;5052890;28;20495;-57
2023/07/23 03:39:56;;;;;;;15.87;9.57;;;15.30;99.90;;;;;;5053037;28;20821;-57
2023/07/23 03:42:24;;;;;;;12.13;9.57;;;15.30;99.90;;;;;;5053332;28;20441;-57
2023/07/23 03:44:51;;;;;;;11.30;8.57;;;15.30;99.90;;;;;;5053002;28;20965;-58
2023/07/23 03:47:19;;;;;;;12.90;10.30;;;15.30;99.90;;;;;;5053161;28;20459;-57
2023/07/23 03:49:47;;;;;;;11.20;8.20;;;15.30;99.90;;;;;;5053243;28;20468;-57
2023/07/23 03:52:15;;;;;;;12.47;9.70;;;15.30;99.90;;;;;;5053030;28;20452;-57
2023/07/23 03:54:42;;;;;;;10.70;9.43;;;15.30;99.90;;;;;;5053111;28;20451;-57
2023/07/23 03:57:10;;;;;;;10.17;8.80;;;15.30;99.90;;;;;;5052470;28;20838;-57
2023/07/23 03:59:38;;;;;;;11.73;8.90;;;15.40;99.90;;;;;;5053056;28;20822;-57
2023/07/23 04:02:06;;;;;;;10.00;9.00;;;15.40;99.90;;;;;;5052437;28;20481;-57
2023/07/23 04:04:33;;;;;;;10.37;8.37;;;15.40;99.90;;;;;;5053202;28;20514;-56
2023/07/23 04:07:00;;;;;;;8.10;7.30;;;15.40;99.90;;;;;;5053184;28;20467;-58
2023/07/23 04:12:01;;;;;;;11.20;8.00;;;15.50;99.90;;;;;;5131723;27;21139;-58
2023/07/23 04:14:28;;;;;;;8.83;7.80;;;15.50;99.90;;;;;;5131475;27;20441;-58
2023/07/23 04:16:55;;;;;;;10.10;7.67;;;15.60;99.90;;;;;;5131774;27;20465;-57
2023/07/23 04:19:22;;;;;;;8.70;7.33;;;15.60;99.90;;;;;;5131846;27;20436;-56
2023/07/23 04:21:49;;;;;;;8.90;8.00;;;15.60;99.90;;;;;;5131068;27;20437;-57
2023/07/23 04:24:16;;;;;;;8.30;7.43;;;15.60;99.90;;;;;;5134805;27;20436;-58
2023/07/23 04:26:43;;;;;;;8.77;7.37;;;15.70;99.90;;;;;;5134181;27;20461;-58
2023/07/23 04:29:11;;;;;;;9.53;7.13;;;15.70;99.90;;;;;;5131401;27;20439;-57
2023/07/23 04:31:38;;;;;;;9.07;7.10;;;15.70;99.90;;;;;;5130800;27;20522;-58
2023/07/23 04:34:04;;;;;;;9.27;7.23;;;15.70;99.90;;;;;;5130864;27;20444;-58
2023/07/23 04:36:31;;;;;;;10.40;6.87;;;15.70;99.90;;;;;;5131014;27;20469;-58
2023/07/23 04:39:00;;;;;;;7.60;6.80;;;15.70;99.90;;;;;;5131099;27;20441;-57
2023/07/23 04:41:27;;;;;;;8.00;7.07;;;15.70;99.90;;;;;;5130868;27;20442;-57
2023/07/23 04:43:53;;;;;;;8.20;6.90;;;15.70;99.90;;;;;;5130648;27;20953;-58
2023/07/23 04:46:22;;;;;;;11.70;7.77;;;15.70;99.90;;;;;;5131598;27;20467;-58
2023/07/23 04:48:49;;;;;;;8.10;7.20;;;15.70;99.90;;;;;;5130792;27;20456;-58
2023/07/23 04:51:16;;;;;;;11.73;7.80;;;15.70;99.90;;;;;;5130712;27;20477;-57
2023/07/23 04:53:42;;;;;;;10.33;7.50;;;15.70;99.90;;;;;;5131615;27;20446;-57
2023/07/23 04:56:09;;;;;;;8.80;6.90;;;15.80;99.90;;;;;;5131572;27;20471;-57
2023/07/23 04:58:36;;;;;;;9.57;7.33;;;15.80;99.90;;;;;;5131571;27;20440;-57
2023/07/23 05:01:08;;;;;;;8.47;7.20;;;15.80;99.90;;;;;;5131402;27;20434;-57
2023/07/23 05:03:36;;;;;;;8.80;6.23;;;15.90;99.90;;;;;;5131481;27;20436;-57
2023/07/23 05:06:04;;;;;;;8.53;7.10;;;15.90;99.90;;;;;;5130603;27;20469;-58
2023/07/23 05:08:32;;;;;;;10.10;7.20;;;15.90;99.90;;;;;;5130760;27;20442;-58
2023/07/23 05:11:00;;;;;;;7.90;6.53;;;15.90;99.90;;;;;;5130540;27;20480;-57
2023/07/23 05:13:28;;;;;;;9.20;7.23;;;16.00;99.90;;;;;;5131437;27;20449;-58
2023/07/23 05:15:54;;;;;;;8.80;7.90;;;16.00;99.90;;;;;;5130293;27;20469;-58
2023/07/23 05:18:22;;;;;;;10.30;7.13;;;16.10;99.90;;;;;;5130991;27;20453;-58
2023/07/23 05:20:50;;;;;;;8.57;6.60;;;16.10;99.90;;;;;;5130602;27;20433;-56
2023/07/23 05:23:17;;;;;;;7.97;7.00;;;16.10;99.90;;;;;;5117493;27;20444;-57
2023/07/23 05:25:44;;;;;;;10.13;7.77;;;16.10;99.90;;;;;;5116613;28;20437;-58
2023/07/23 05:28:11;;;;;;;9.03;7.30;;;16.10;99.90;;;;;;5116475;28;20455;-59
2023/07/23 05:30:38;;;;;;;9.73;7.30;;;16.20;99.90;;;;;;5118962;28;20469;-57
2023/07/23 05:33:05;;;;;;;9.53;6.40;;;16.10;99.90;;;;;;5121804;28;20906;-58
2023/07/23 05:35:32;;;;;;;7.93;5.93;;;16.10;99.90;;;;;;5122501;28;20940;-57
2023/07/23 05:38:00;;;;;;;8.90;7.17;;;16.20;99.90;;;;;;5120877;28;20452;-59
2023/07/23 05:40:26;;;;;;;8.30;6.80;;;16.20;99.90;;;;;;5123912;28;20446;-58
2023/07/23 05:42:56;;;;;;;10.50;7.50;;;16.20;99.90;;;;;;5124523;28;20447;-57
2023/07/23 05:45:23;;;;;;;7.10;6.40;;;16.20;99.90;;;;;;5122912;28;20468;-58
2023/07/23 05:47:49;;;;;;;9.70;6.60;;;16.30;99.90;;;;;;5123906;28;20459;-58
2023/07/23 05:50:16;;;;;;;8.23;6.20;;;16.30;99.90;;;;;;5124834;28;20441;-58
2023/07/23 05:52:43;;;;;;;9.27;7.07;;;16.40;99.90;;;;;;5129310;27;20438;-57
2023/07/23 05:55:11;;;;;;;7.57;6.13;;;16.50;99.90;;;;;;5131788;28;21025;-58
2023/07/23 05:57:38;;;;;;;10.00;6.67;;;16.60;99.90;;;;;;5131695;28;20531;-58
2023/07/23 06:00:06;;;;;;;11.93;6.00;;;16.80;99.90;;;;;;5127301;28;20446;-57
2023/07/23 06:02:33;;;;;;;9.43;6.60;;;17.00;99.90;;;;;;5125633;28;20446;-58
2023/07/23 06:04:59;;;;;;;8.80;5.50;;;17.10;99.90;;;;;;5123444;28;20443;-57
2023/07/23 06:07:26;;;;;;;10.90;6.43;;;17.30;99.90;;;;;;5125987;28;20468;-57
2023/07/23 06:09:54;;;;;;;6.90;6.07;;;17.60;99.90;;;;;;5124234;28;20829;-58
2023/07/23 06:12:22;;;;;;;10.10;6.27;;;17.80;99.90;;;;;;5125075;28;20487;-57
2023/07/23 06:14:49;;;;;;;7.87;5.10;;;18.00;99.90;;;;;;5117407;28;20474;-57
2023/07/23 06:17:16;;;;;;;6.70;6.00;;;18.20;99.90;;;;;;5116975;28;20853;-58
2023/07/23 06:19:42;;;;;;;6.33;5.23;;;18.40;99.90;;;;;;5117462;28;20548;-58
2023/07/23 06:22:09;;;;;;;5.00;4.50;;;18.60;99.90;;;;;;5118427;28;21014;-58
2023/07/23 06:24:36;;;;;;;5.80;5.13;;;18.80;99.90;;;;;;5117988;28;20798;-58
2023/07/23 06:27:03;;;;;;;7.10;5.20;;;18.90;99.90;;;;;;5117377;28;20863;-57
2023/07/23 06:29:31;;;;;;;7.33;4.27;;;19.00;99.90;;;;;;5117853;28;20451;-59
2023/07/23 06:31:58;;;;;;;5.93;4.20;;;19.00;99.90;;;;;;5116995;28;20480;-57
2023/07/23 06:34:25;;;;;;;5.90;4.57;;;19.00;99.90;;;;;;5116181;28;20444;-57
2023/07/23 06:36:52;;;;;;;5.53;4.90;;;19.10;99.90;;;;;;5117325;28;20480;-56
2023/07/23 06:39:20;;;;;;;5.03;4.10;;;19.10;99.90;;;;;;5117314;28;20464;-57
2023/07/23 06:41:47;;;;;;;6.10;5.30;;;19.20;99.90;;;;;;5117302;27;20456;-57
2023/07/23 06:44:14;;;;;;;7.90;5.80;;;19.30;99.90;;;;;;5116451;28;20540;-57
2023/07/23 06:46:42;;;;;;;5.50;4.37;;;19.40;99.90;;;;;;5117432;28;20457;-58
2023/07/23 06:49:12;;;;;;;6.00;5.30;;;19.50;99.90;;;;;;5116181;28;20445;-58
2023/07/23 06:51:38;;;;;;;7.03;4.50;;;19.70;99.90;;;;;;5116315;28;20477;-58
2023/07/23 06:54:05;;;;;;;7.83;4.50;;;19.80;99.90;;;;;;5116794;28;20448;-58
2023/07/23 06:56:33;;;;;;;5.30;4.20;;;20.00;99.90;;;;;;5116557;28;20468;-57
2023/07/23 06:59:00;;;;;;;5.90;4.40;;;20.20;99.90;;;;;;5116421;28;20446;-58
2023/07/23 07:01:26;;;;;;;5.07;4.40;;;20.40;99.90;;;;;;5116425;28;20830;-58
2023/07/23 07:03:56;;;;;;;7.33;4.30;;;20.50;99.00;;;;;;5118071;28;20446;-58
2023/07/23 07:06:22;;;;;;;4.67;3.93;;;20.70;98.00;;;;;;5116661;28;20480;-57
2023/07/23 07:08:49;;;;;;;5.43;4.20;;;20.80;97.20;;;;;;5116570;28;20448;-57
2023/07/23 07:11:16;;;;;;;5.30;4.43;;;20.90;96.40;;;;;;5118175;28;20484;-58
2023/07/23 07:13:43;;;;;;;5.33;3.97;;;21.10;95.60;;;;;;5119595;28;20446;-58
2023/07/23 07:16:10;;;;;;;6.60;4.77;;;21.20;94.70;;;;;;5117095;28;20465;-58
2023/07/23 07:18:37;;;;;;;6.00;4.37;;;21.40;93.90;;;;;;5117390;28;20460;-58
2023/07/23 07:21:05;;;;;;;5.57;4.43;;;21.60;93.00;;;;;;5121859;28;20495;-55
2023/07/23 07:23:32;;;;;;;5.27;4.77;;;21.70;92.10;;;;;;5118379;28;20441;-57
2023/07/23 07:26:00;;;;;;;8.70;4.37;;;21.90;91.20;;;;;;5116143;28;20461;-57
2023/07/23 07:28:27;;;;;;;4.60;3.97;;;21.90;90.20;;;;;;5116012;28;20441;-57
2023/07/23 07:30:58;;;;;;;7.10;4.40;;;22.00;89.10;;;;;;5116849;28;20473;-58
2023/07/23 07:33:25;;;;;;;4.20;3.80;;;22.10;87.00;;;;;;5116753;28;20430;-58
2023/07/23 07:35:54;;;;;;;3.97;3.57;;;22.20;85.50;;;;;;5116008;27;20449;-58
2023/07/23 07:38:23;;;;;;;7.40;4.03;;;22.20;83.50;;;;;;5121655;28;20491;-56
2023/07/23 07:40:50;;;;;;;7.63;3.50;;;22.10;82.90;;;;;;5126494;28;20823;-57
2023/07/23 07:43:17;;;;;;;5.60;4.57;;;22.00;81.80;;;;;;5126020;28;20448;-57
2023/07/23 07:45:48;;;;;;;6.10;3.63;;;22.00;80.80;;;;;;5125872;28;20949;-58
2023/07/23 07:48:14;;;;;;;4.63;3.70;;;21.80;79.80;;;;;;5125600;28;20430;-57
2023/07/23 07:50:41;;;;;;;4.03;3.63;;;21.80;79.90;;;;;;5121169;28;20442;-58
2023/07/23 07:53:08;;;;;;;4.20;3.67;;;21.80;79.40;;;;;;5131317;28;20457;-58
2023/07/23 07:55:42;;;;;;;4.47;4.07;;;21.80;79.10;;;;;;5130163;28;20437;-58
2023/07/23 07:58:12;;;;;;;5.83;4.40;;;21.90;78.40;;;;;;5129708;28;20422;-57
2023/07/23 08:00:40;;;;;;;3.97;3.57;;;22.10;77.20;;;;;;5130185;28;20847;-58
2023/07/23 08:03:07;;;;;;;7.80;4.10;;;22.20;76.50;;;;;;5130239;28;20490;-59
2023/07/23 08:05:35;;;;;;;5.13;4.63;;;22.40;75.90;;;;;;5129740;28;20441;-59
2023/07/23 08:08:04;;;;;;;4.70;4.20;;;22.50;74.90;;;;;;5128965;28;20444;-57
2023/07/23 08:10:32;;;;;;;5.43;3.73;;;22.70;74.10;;;;;;5128896;28;20485;-58
2023/07/23 08:13:02;;;;;;;6.07;4.40;;;22.80;73.10;;;;;;5125989;28;20487;-59
2023/07/23 08:15:31;;;;;;;5.50;3.60;;;23.00;72.30;;;;;;5127017;28;20469;-57
2023/07/23 08:17:58;;;;;;;6.73;3.70;;;23.10;71.50;;;;;;5125347;28;20458;-57
2023/07/23 08:20:28;;;;;;;5.30;3.93;;;23.30;71.00;;;;;;5123998;28;20437;-57
2023/07/23 08:22:55;;;;;;;4.33;3.90;;;23.40;69.80;;;;;;5124454;28;20441;-58
2023/07/23 08:25:22;;;;;;;5.33;3.90;;;23.50;69.00;;;;;;5124517;28;20445;-56
2023/07/23 08:27:58;;;;;;;5.27;3.53;;;23.70;68.10;;;;;;5123447;28;20493;-58
2023/07/23 08:30:27;;;;;;;5.00;4.33;;;24.00;66.70;;;;;;5121610;28;20879;-58
2023/07/23 08:32:56;;;;;;;4.53;3.60;;;24.20;65.50;;;;;;5121730;28;20839;-58
2023/07/23 08:35:24;;;;;;;4.17;3.70;;;24.40;64.60;;;;;;5119765;28;20452;-58
2023/07/23 08:37:51;;;;;;;8.13;3.97;;;24.50;63.70;;;;;;5142355;22;20987;-58
2023/07/23 08:40:19;;;;;;;9.43;3.93;;;24.70;62.90;;;;;;5115103;28;20450;-58
2023/07/23 08:43:19;;;;;;;4.63;4.10;;;24.70;62.10;;;;;;5115037;28;20438;-58
2023/07/23 08:46:20;;;;;;;5.40;3.77;;;24.70;61.80;;;;;;5116400;28;20794;-59
2023/07/23 08:49:09;;;;;;;5.00;4.10;;;24.50;61.20;;;;;;5114083;28;20464;-57
2023/07/23 08:51:42;;;;;;;4.73;4.00;;;24.40;61.60;;;;;;5114110;28;20515;-59
2023/07/23 08:54:10;;;;;;;4.87;4.20;;;24.30;61.70;;;;;;5113897;28;20434;-58
2023/07/23 08:56:38;;;;;;;4.90;4.40;;;24.20;62.00;;;;;;5115871;28;20540;-58
2023/07/23 08:59:06;;;;;;;4.47;4.07;;;24.40;62.10;;;;;;5117147;28;20461;-58
2023/07/23 09:01:37;;;;;;;5.37;3.57;;;24.40;61.50;;;;;;5117232;28;20443;-58
2023/07/23 09:04:06;;;;;;;5.00;3.67;;;24.50;60.70;;;;;;5117328;28;20446;-58
2023/07/23 09:06:33;;;;;;;3.90;3.60;;;24.50;59.80;;;;;;5118473;28;20548;-58
2023/07/23 09:09:04;;;;;;;5.57;3.97;;;24.60;59.20;;;;;;5118283;28;20467;-58
2023/07/23 09:11:31;;;;;;;4.97;3.60;;;24.70;58.50;;;;;;5118224;28;20484;-58
2023/07/23 09:14:00;;;;;;;6.90;4.87;;;24.80;58.40;;;;;;5121261;28;20448;-57
2023/07/23 09:16:27;;;;;;;4.30;3.80;;;24.80;57.90;;;;;;5116946;28;20445;-58
2023/07/23 09:18:55;;;;;;;4.40;3.83;;;24.90;57.70;;;;;;5116828;28;20468;-57
2023/07/23 09:21:26;;;;;;;4.33;3.80;;;24.90;57.40;;;;;;5116693;28;20456;-57
2023/07/23 09:23:54;;;;;;;4.10;3.70;;;24.70;57.10;;;;;;5116563;28;20438;-58
2023/07/23 09:26:22;;;;;;;5.93;3.67;;;24.60;57.20;;;;;;5117143;28;20484;-58
2023/07/23 09:28:51;;;;;;;7.03;4.30;;;24.40;57.30;;;;;;5116469;28;20568;-59
2023/07/23 09:31:23;;;;;;;4.57;3.37;;;24.30;57.50;;;;;;5116056;28;20446;-59
2023/07/23 09:33:55;;;;;;;5.43;3.67;;;24.30;57.50;;;;;;5116154;28;20504;-58
2023/07/23 09:36:23;;;;;;;7.80;3.93;;;24.30;57.60;;;;;;5115829;28;20483;-58
2023/07/23 09:39:00;;;;;;;3.40;3.03;;;24.50;57.50;;;;;;5116022;28;20564;-59
2023/07/23 09:41:32;;;;;;;3.90;3.50;;;24.70;57.10;;;;;;5121399;28;20441;-58
2023/07/23 09:44:03;;;;;;;4.40;4.00;;;24.90;56.60;;;;;;5116100;28;20531;-59
2023/07/23 09:46:31;;;;;;;5.90;4.33;;;25.10;56.10;;;;;;5115959;28;20426;-58
2023/07/23 09:48:59;;;;;;;4.73;3.60;;;25.30;55.80;;;;;;5116786;28;20474;-56
2023/07/23 09:51:26;;;;;;;5.20;3.57;;;25.30;55.30;;;;;;5116107;28;20484;-58
2023/07/23 09:53:54;;;;;;;3.77;3.37;;;25.30;55.00;;;;;;5116299;28;20947;-59
2023/07/23 09:56:22;;;;;;;4.10;3.70;;;25.30;54.90;;;;;;5115902;28;20812;-59
2023/07/23 09:58:51;;;;;;;4.30;3.50;;;25.30;54.80;;;;;;5115946;28;20461;-58
2023/07/23 10:01:18;;;;;;;4.10;3.70;;;25.30;54.30;;;;;;5115710;28;20442;-58
2023/07/23 10:03:47;;;;;;;4.10;3.70;;;25.30;53.70;;;;;;5115716;28;20446;-57
2023/07/23 10:06:16;;;;;;;4.00;3.27;;;25.30;53.30;;;;;;5115702;28;20503;-57
2023/07/23 10:08:45;;;;;;;3.13;2.77;;;25.30;52.90;;;;;;5115192;28;20481;-58
2023/07/23 10:11:41;;;;;;;3.87;2.60;;;25.30;52.30;;;;;;5118405;28;20449;-56
2023/07/23 10:14:07;;;;;;;3.20;2.90;;;25.30;51.60;;;;;;5114961;28;20430;-57
2023/07/23 10:16:38;;;;;;;2.90;2.60;;;25.30;50.80;;;;;;5115601;28;20438;-58
2023/07/23 10:19:06;;;;;;;3.90;3.33;;;25.30;50.20;;;;;;5115746;28;20620;-57
2023/07/23 10:21:36;;;;;;;3.23;2.80;;;25.40;49.40;;;;;;5115940;28;20442;-57
2023/07/23 10:24:04;;;;;;;3.10;2.43;;;25.40;48.30;;;;;;5115490;28;20437;-59
2023/07/23 10:26:39;;;;;;;5.60;2.80;;;25.50;47.80;;;;;;5115214;28;20437;-57
2023/07/23 10:29:11;;;;;;;5.20;3.03;;;25.60;47.00;;;;;;5114735;28;20464;-58
2023/07/23 10:31:39;;;;;;;2.33;2.13;;;25.60;46.20;;;;;;5115519;28;20428;-57
2023/07/23 10:34:42;;;;;;;7.53;2.90;;;25.50;45.80;;;;;;5114924;28;20446;-56
2023/07/23 10:37:16;;;;;;;2.40;2.20;;;25.30;45.40;;;;;;5114841;28;20479;-58
2023/07/23 10:39:45;;;;;;;3.00;2.67;;;25.20;45.60;;;;;;5114535;28;20473;-58
2023/07/23 10:42:38;;;;;;;3.23;2.90;;;25.20;45.80;;;;;;5115252;28;20452;-57
2023/07/23 10:45:23;;;;;;;3.73;1.97;;;25.20;45.70;;;;;;5114734;28;20452;-56
2023/07/23 10:47:51;;;;;;;2.90;2.50;;;25.20;45.50;;;;;;5114480;28;20505;-57
2023/07/23 10:50:19;;;;;;;4.57;2.93;;;25.30;45.50;;;;;;5114684;28;20438;-57
2023/07/23 10:52:50;;;;;;;3.20;2.30;;;25.20;45.50;;;;;;5114674;28;20507;-58
2023/07/23 10:55:33;;;;;;;3.50;2.67;;;25.10;45.50;;;;;;5114613;28;20456;-56
2023/07/23 10:58:02;;;;;;;4.10;2.50;;;25.10;45.70;;;;;;5114734;28;20422;-58
2023/07/23 11:00:29;;;;;;;3.30;2.47;;;25.00;45.70;;;;;;5115527;28;20445;-58
2023/07/23 11:02:57;;;;;;;2.87;2.57;;;25.00;45.90;;;;;;5114313;28;20520;-58
2023/07/23 11:05:25;;;;;;;3.97;2.70;;;24.90;45.90;;;;;;5114223;28;20452;-57
2023/07/23 11:08:15;;;;;;;5.77;2.50;;;24.80;46.00;;;;;;5114427;28;20446;-58
2023/07/23 11:10:48;;;;;;;3.00;2.37;;;24.70;46.40;;;;;;5115039;28;20445;-58
2023/07/23 11:13:15;;;;;;;4.17;2.73;;;24.60;46.50;;;;;;5114185;28;20477;-57
2023/07/23 11:15:42;;;;;;;2.80;2.60;;;24.50;46.80;;;;;;5114204;28;20454;-58
2023/07/23 11:18:10;;;;;;;3.53;2.97;;;24.40;47.40;;;;;;5114684;28;20467;-58
2023/07/23 11:20:37;;;;;;;3.03;2.73;;;24.40;47.70;;;;;;5114158;28;20438;-58
2023/07/23 11:23:06;;;;;;;5.83;3.20;;;24.40;47.20;;;;;;5114533;28;20817;-58
2023/07/23 11:25:34;;;;;;;2.73;2.53;;;24.40;47.20;;;;;;5114638;28;20430;-58
2023/07/23 11:28:02;;;;;;;5.20;2.90;;;24.50;47.40;;;;;;5114121;28;20901;-57
2023/07/23 11:30:31;;;;;;;2.67;2.47;;;24.50;47.50;;;;;;5114386;28;21020;-57
2023/07/23 11:32:59;;;;;;;3.57;3.27;;;24.50;47.60;;;;;;5114747;28;20474;-57
2023/07/23 11:35:26;;;;;;;3.07;2.70;;;24.30;47.60;;;;;;5114784;28;20441;-57
2023/07/23 11:37:53;;;;;;;4.27;2.77;;;24.20;47.80;;;;;;5114451;28;20449;-57
2023/07/23 11:40:24;;;;;;;3.37;2.73;;;24.20;48.10;;;;;;5114512;28;20442;-59
2023/07/23 11:42:54;;;;;;;3.87;3.07;;;24.10;48.40;;;;;;5114017;28;20442;-58
2023/07/23 11:45:21;;;;;;;3.33;2.90;;;24.10;48.90;;;;;;5113983;28;20442;-58
2023/07/23 11:47:49;;;;;;;3.40;2.43;;;23.90;49.20;;;;;;5113950;28;20453;-58
2023/07/23 11:50:16;;;;;;;3.50;3.00;;;23.80;49.70;;;;;;5115084;28;21000;-57
2023/07/23 11:52:43;;;;;;;4.80;2.93;;;23.80;50.10;;;;;;5115062;28;21002;-57
2023/07/23 11:55:19;;;;;;;3.57;2.50;;;23.80;50.50;;;;;;5114374;28;20998;-57
2023/07/23 11:57:50;;;;;;;5.50;3.00;;;23.80;50.80;;;;;;5114423;28;20437;-57
2023/07/23 12:00:26;;;;;;;5.70;2.63;;;23.80;51.00;;;;;;5114398;28;20425;-58
2023/07/23 12:02:53;;;;;;;4.93;2.87;;;24.00;51.00;;;;;;5114203;28;20426;-57
2023/07/23 12:05:20;;;;;;;3.00;2.50;;;24.20;50.90;;;;;;5113416;28;20449;-58
2023/07/23 12:07:47;;;;;;;4.10;2.90;;;24.50;50.80;;;;;;5113658;28;20441;-58
2023/07/23 12:10:15;;;;;;;3.63;2.97;;;24.80;50.40;;;;;;5113321;28;20446;-57
2023/07/23 12:12:44;;;;;;;4.13;2.83;;;25.00;50.10;;;;;;5114227;28;20491;-57
2023/07/23 12:15:14;;;;;;;4.80;3.30;;;25.10;49.90;;;;;;5114425;28;20442;-56
2023/07/23 12:17:42;;;;;;;6.83;3.10;;;25.10;49.70;;;;;;5114076;28;20448;-57
2023/07/23 12:20:10;;;;;;;6.20;2.40;;;25.00;50.00;;;;;;5114586;28;20458;-57
2023/07/23 12:22:49;;;;;;;4.60;3.70;;;24.90;50.30;;;;;;5114908;28;20438;-57
2023/07/23 12:25:16;;;;;;;4.73;3.10;;;24.80;50.60;;;;;;5113946;28;20426;-58
2023/07/23 12:27:43;;;;;;;3.67;2.27;;;24.50;50.80;;;;;;5114237;28;20445;-58
2023/07/23 12:30:11;;;;;;;3.10;2.40;;;24.30;51.30;;;;;;5113841;28;20827;-57
2023/07/23 12:32:38;;;;;;;3.10;2.57;;;24.10;51.90;;;;;;5116245;28;20477;-58
2023/07/23 12:35:07;;;;;;;5.07;3.13;;;24.00;52.30;;;;;;5118447;28;20441;-56
2023/07/23 12:37:35;;;;;;;7.80;3.10;;;24.00;52.40;;;;;;5117738;28;21002;-57
2023/07/23 12:40:05;;;;;;;5.20;3.07;;;24.10;52.60;;;;;;5117500;28;20523;-58
2023/07/23 12:42:32;;;;;;;2.93;2.37;;;24.20;52.50;;;;;;5119231;28;20807;-57
2023/07/23 12:44:59;;;;;;;3.97;2.70;;;24.50;52.30;;;;;;5117556;28;20852;-57
2023/07/23 12:47:27;;;;;;;2.70;2.43;;;24.90;51.80;;;;;;5117440;28;20445;-58
2023/07/23 12:49:56;;;;;;;3.90;2.63;;;25.10;51.40;;;;;;5117215;28;20552;-57
2023/07/23 12:52:24;;;;;;;3.77;2.87;;;25.20;51.30;;;;;;5117155;28;20446;-57